createdAt,value
2022-08-21T00:00:28.306Z,77.57
2022-08-21T00:02:57.917Z,77.69
2022-08-21T00:05:26.084Z,77.80
2022-08-21T00:07:54.880Z,78.26
2022-08-21T00:10:21.971Z,78.42
2022-08-21T00:12:49.341Z,78.34
2022-08-21T00:15:19.374Z,78.62
2022-08-21T00:17:47.253Z,78.73
2022-08-21T00:20:16.235Z,78.63
2022-08-21T00:22:43.500Z,79.31
2022-08-21T00:25:12.515Z,79.34
2022-08-21T00:27:39.725Z,79.95
2022-08-21T00:30:08.206Z,80.06
2022-08-21T00:32:38.631Z,80.00
2022-08-21T00:35:07.431Z,80.73
2022-08-21T00:37:35.373Z,80.56
2022-08-21T00:40:02.465Z,80.18
2022-08-21T00:42:30.945Z,80.63
2022-08-21T00:44:57.592Z,80.60
2022-08-21T00:47:24.184Z,80.49
2022-08-21T00:49:50.894Z,80.94
2022-08-21T00:52:22.829Z,81.01
2022-08-21T00:54:50.806Z,81.24
2022-08-21T00:57:24.208Z,81.17
2022-08-21T00:59:56.951Z,81.33
2022-08-21T01:02:23.628Z,81.54
2022-08-21T01:04:50.308Z,81.11
2022-08-21T01:07:17.811Z,81.43
2022-08-21T01:09:47.797Z,81.21
2022-08-21T01:12:15.737Z,81.13
2022-08-21T01:14:43.304Z,81.48
2022-08-21T01:17:12.430Z,81.10
2022-08-21T01:19:39.534Z,80.98
2022-08-21T01:22:07.841Z,81.07
2022-08-21T01:24:34.686Z,80.94
2022-08-21T01:27:01.781Z,81.39
2022-08-21T01:29:36.794Z,81.77
2022-08-21T01:32:08.303Z,81.59
2022-08-21T01:34:37.327Z,81.86
2022-08-21T01:37:03.963Z,81.98
2022-08-21T01:39:32.484Z,81.97
2022-08-21T01:41:59.130Z,81.99
2022-08-21T01:44:26.810Z,82.02
2022-08-21T01:46:53.590Z,82.21
2022-08-21T01:49:21.026Z,81.85
2022-08-21T01:51:47.932Z,81.99
2022-08-21T01:54:14.726Z,82.22
2022-08-21T01:56:46.842Z,82.57
2022-08-21T01:59:13.513Z,82.97
2022-08-21T02:01:40.081Z,83.06
2022-08-21T02:04:07.393Z,82.86
2022-08-21T02:06:34.509Z,83.09
2022-08-21T02:09:01.372Z,83.21
2022-08-21T02:11:27.930Z,83.06
2022-08-21T02:13:55.913Z,83.62
2022-08-21T02:16:22.563Z,84.32
2022-08-21T02:18:49.202Z,85.18
2022-08-21T02:21:15.778Z,85.87
2022-08-21T02:23:42.410Z,85.80
2022-08-21T02:26:09.861Z,86.13
2022-08-21T02:28:37.418Z,86.08
2022-08-21T02:31:06.509Z,85.77
2022-08-21T02:33:33.203Z,85.43
2022-08-21T02:35:59.853Z,85.34
2022-08-21T02:38:28.819Z,84.84
2022-08-21T02:40:56.241Z,85.03
2022-08-21T02:43:25.386Z,85.19
2022-08-21T02:45:52.906Z,85.64
2022-08-21T02:48:23.604Z,85.40
2022-08-21T02:50:55.220Z,85.21
2022-08-21T02:53:21.948Z,85.37
2022-08-21T02:55:51.061Z,85.10
2022-08-21T02:58:25.710Z,85.11
2022-08-21T03:00:52.810Z,85.19
2022-08-21T03:03:20.985Z,85.17
2022-08-21T03:05:48.593Z,84.96
2022-08-21T03:08:16.127Z,84.89
2022-08-21T03:10:45.934Z,84.76
2022-08-21T03:13:13.325Z,84.92
2022-08-21T03:15:40.276Z,85.06
2022-08-21T03:18:07.416Z,85.10
2022-08-21T03:20:37.249Z,85.27
2022-08-21T03:23:06.172Z,85.36
2022-08-21T03:25:42.068Z,85.82
2022-08-21T03:28:13.135Z,85.40
2022-08-21T03:30:40.284Z,85.25
2022-08-21T03:33:06.835Z,85.08
2022-08-21T03:35:34.830Z,85.26
2022-08-21T03:38:01.409Z,85.46
2022-08-21T03:40:28.491Z,85.79
2022-08-21T03:42:55.087Z,85.60
2022-08-21T03:45:22.002Z,85.61
2022-08-21T03:47:53.674Z,85.24
2022-08-21T03:50:20.307Z,85.75
2022-08-21T03:52:48.219Z,85.02
2022-08-21T03:55:14.906Z,85.18
2022-08-21T03:57:41.515Z,84.81
2022-08-21T04:00:09.982Z,85.13
2022-08-21T04:02:36.579Z,85.26
2022-08-21T04:05:04.031Z,85.28
2022-08-21T04:07:30.565Z,85.30
2022-08-21T04:09:58.606Z,85.11
2022-08-21T04:12:25.179Z,84.93
2022-08-21T04:14:52.055Z,85.13
2022-08-21T04:17:18.814Z,85.58
2022-08-21T04:19:46.989Z,86.12
2022-08-21T04:22:16.365Z,85.85
2022-08-21T04:24:43.072Z,85.75
2022-08-21T04:27:11.059Z,85.69
2022-08-21T04:29:40.064Z,85.70
2022-08-21T04:32:07.143Z,85.83
2022-08-21T04:34:33.885Z,85.83
2022-08-21T04:37:00.557Z,85.84
2022-08-21T04:39:29.668Z,85.73
2022-08-21T04:41:56.695Z,85.80
2022-08-21T04:44:24.590Z,85.89
2022-08-21T04:46:51.223Z,85.78
2022-08-21T04:49:17.805Z,85.65
2022-08-21T04:51:45.709Z,85.63
2022-08-21T04:54:17.886Z,85.61
2022-08-21T04:56:47.917Z,85.75
2022-08-21T04:59:18.442Z,85.78
2022-08-21T05:01:46.804Z,85.68
2022-08-21T05:04:17.319Z,85.71
2022-08-21T05:06:47.375Z,85.66
2022-08-21T05:09:17.279Z,85.75
2022-08-21T05:11:44.572Z,86.15
2022-08-21T05:14:11.628Z,85.93
2022-08-21T05:16:38.541Z,85.83
2022-08-21T05:19:07.557Z,85.99
2022-08-21T05:21:34.515Z,86.06
2022-08-21T05:24:01.120Z,86.15
2022-08-21T05:26:28.309Z,86.14
2022-08-21T05:28:54.878Z,86.17
2022-08-21T05:31:22.824Z,86.42
2022-08-21T05:33:49.384Z,86.68
2022-08-21T05:36:20.026Z,87.08
2022-08-21T05:38:46.945Z,87.60
2022-08-21T05:41:13.699Z,87.83
2022-08-21T05:43:40.339Z,87.72
2022-08-21T05:46:08.194Z,87.79
2022-08-21T05:48:36.076Z,87.67
2022-08-21T05:51:06.426Z,87.89
2022-08-21T05:53:34.395Z,87.79
2022-08-21T05:56:00.961Z,87.82
2022-08-21T05:58:27.531Z,87.57
2022-08-21T06:00:54.089Z,87.45
2022-08-21T06:03:24.562Z,87.48
2022-08-21T06:05:51.571Z,87.12
2022-08-21T06:08:19.009Z,86.64
2022-08-21T06:10:48.992Z,86.08
2022-08-21T06:13:17.728Z,85.99
2022-08-21T06:15:44.421Z,85.58
2022-08-21T06:18:11.859Z,85.47
2022-08-21T06:20:38.938Z,85.40
2022-08-21T06:23:05.927Z,85.88
2022-08-21T06:25:33.293Z,85.65
2022-08-21T06:28:06.255Z,85.22
2022-08-21T06:30:33.231Z,85.10
2022-08-21T06:33:00.470Z,85.18
2022-08-21T06:35:27.680Z,84.67
2022-08-21T06:37:54.183Z,84.62
2022-08-21T06:40:20.818Z,84.15
2022-08-21T06:42:48.249Z,84.09
2022-08-21T06:45:17.086Z,83.60
2022-08-21T06:47:43.621Z,83.14
2022-08-21T06:50:10.321Z,83.33
2022-08-21T06:52:37.608Z,82.56
2022-08-21T06:55:06.724Z,82.87
2022-08-21T06:57:33.943Z,82.47
2022-08-21T07:00:00.572Z,82.47
2022-08-21T07:02:28.455Z,82.05
2022-08-21T07:04:55.116Z,81.79
2022-08-21T07:07:21.669Z,80.84
2022-08-21T07:09:48.453Z,80.27
2022-08-21T07:12:15.013Z,79.68
2022-08-21T07:14:41.653Z,79.33
2022-08-21T07:17:08.191Z,79.14
2022-08-21T07:19:36.430Z,78.53
2022-08-21T07:22:03.496Z,78.16
2022-08-21T07:24:30.519Z,77.80
2022-08-21T07:26:57.097Z,76.64
2022-08-21T07:29:23.727Z,76.55
2022-08-21T07:31:50.317Z,75.90
2022-08-21T07:34:17.483Z,75.90
2022-08-21T07:36:45.369Z,74.25
2022-08-21T07:39:12.687Z,73.83
2022-08-21T07:41:39.422Z,73.79
2022-08-21T07:44:06.568Z,73.05
2022-08-21T07:46:33.303Z,72.75
2022-08-21T07:49:00.030Z,71.18
2022-08-21T07:51:28.950Z,69.31
2022-08-21T07:53:58.815Z,68.44
2022-08-21T07:56:25.736Z,68.98
2022-08-21T07:58:52.529Z,68.03
2022-08-21T08:01:19.590Z,67.91
2022-08-21T08:03:46.769Z,66.56
2022-08-21T08:06:13.866Z,66.66
2022-08-21T08:08:41.667Z,66.07
2022-08-21T08:11:10.483Z,64.53
2022-08-21T08:13:40.033Z,63.73
2022-08-21T08:16:07.197Z,64.31
2022-08-21T08:18:33.834Z,64.68
2022-08-21T08:21:00.418Z,64.54
2022-08-21T08:23:26.963Z,63.76
2022-08-21T08:25:53.591Z,63.29
2022-08-21T08:28:21.564Z,62.33
2022-08-21T08:30:48.109Z,61.36
2022-08-21T08:33:15.831Z,61.62
2022-08-21T08:35:43.322Z,59.88
2022-08-21T08:38:09.914Z,59.69
2022-08-21T08:40:43.137Z,58.69
2022-08-21T08:43:10.120Z,57.04
2022-08-21T08:45:46.514Z,55.93
2022-08-21T08:48:20.745Z,56.30
2022-08-21T08:50:50.313Z,56.17
2022-08-21T08:53:20.683Z,55.56
2022-08-21T08:55:49.053Z,54.33
2022-08-21T08:58:21.202Z,54.16
2022-08-21T09:00:51.612Z,53.24
2022-08-21T09:03:18.913Z,54.23
2022-08-21T09:05:48.244Z,53.55
2022-08-21T09:08:24.158Z,52.83
2022-08-21T09:11:01.433Z,52.96
2022-08-21T09:13:40.280Z,51.91
2022-08-21T09:16:16.415Z,52.67
2022-08-21T09:18:55.347Z,50.03
2022-08-21T09:21:29.158Z,50.35
2022-08-21T09:24:01.093Z,49.73
2022-08-21T09:26:32.650Z,48.00
2022-08-21T09:29:00.537Z,48.18
2022-08-21T09:31:31.207Z,47.71
2022-08-21T09:33:59.573Z,47.99
2022-08-21T09:36:34.071Z,46.19
2022-08-21T09:39:00.750Z,47.16
2022-08-21T09:41:29.651Z,47.73
2022-08-21T09:43:56.410Z,46.73
2022-08-21T09:46:25.257Z,45.60
2022-08-21T09:48:54.874Z,45.72
2022-08-21T09:51:24.522Z,45.71
2022-08-21T09:53:54.914Z,44.77
2022-08-21T09:56:28.191Z,44.17
2022-08-21T09:58:54.882Z,44.90
2022-08-21T10:01:24.010Z,45.20
2022-08-21T10:04:04.992Z,43.22
2022-08-21T10:06:31.634Z,44.17
2022-08-21T10:09:06.413Z,43.58
2022-08-21T10:11:34.712Z,43.71
2022-08-21T10:14:14.208Z,44.19
2022-08-21T10:16:52.296Z,43.43
2022-08-21T10:19:30.014Z,43.47
2022-08-21T10:22:03.708Z,41.14
2022-08-21T10:24:34.019Z,41.98
2022-08-21T10:27:12.182Z,41.59
2022-08-21T10:29:48.449Z,40.97
2022-08-21T10:32:30.452Z,41.16
2022-08-21T10:35:07.502Z,40.67
2022-08-21T10:37:46.920Z,39.55
2022-08-21T10:40:21.977Z,39.77
2022-08-21T10:43:02.147Z,39.87
2022-08-21T10:45:42.981Z,38.94
2022-08-21T10:48:16.812Z,38.83
2022-08-21T10:50:51.529Z,39.08
2022-08-21T10:53:37.432Z,38.67
2022-08-21T10:56:15.921Z,38.75
2022-08-21T10:58:50.662Z,38.77
2022-08-21T11:01:23.831Z,38.04
2022-08-21T11:04:06.910Z,37.13
2022-08-21T11:06:40.192Z,36.64
2022-08-21T11:09:14.714Z,36.58
2022-08-21T11:11:59.024Z,37.20
2022-08-21T11:14:40.363Z,35.71
2022-08-21T11:17:22.337Z,35.60
2022-08-21T11:19:54.469Z,35.51
2022-08-21T11:22:27.413Z,34.09
2022-08-21T11:25:01.428Z,33.96
2022-08-21T11:27:33.985Z,34.32
2022-08-21T11:30:02.171Z,34.66
2022-08-21T11:32:53.825Z,34.82
2022-08-21T11:35:32.541Z,33.80
2022-08-21T11:38:16.508Z,34.79
2022-08-21T11:40:53.310Z,33.98
2022-08-21T11:43:28.647Z,35.25
2022-08-21T11:45:58.761Z,34.57
2022-08-21T11:48:38.009Z,34.26
2022-08-21T11:51:10.534Z,34.22
2022-08-21T11:53:50.914Z,33.77
2022-08-21T11:56:26.128Z,33.68
2022-08-21T11:58:57.878Z,32.17
2022-08-21T12:01:31.551Z,30.83
2022-08-21T12:04:02.941Z,30.61
2022-08-21T12:06:31.902Z,31.57
2022-08-21T12:09:02.080Z,30.90
2022-08-21T12:11:30.915Z,30.17
2022-08-21T12:14:01.172Z,30.07
2022-08-21T12:16:32.987Z,29.42
2022-08-21T12:19:08.243Z,29.22
2022-08-21T12:21:50.081Z,29.90
2022-08-21T12:24:32.789Z,28.84
2022-08-21T12:27:02.684Z,28.29
2022-08-21T12:29:31.466Z,28.69
2022-08-21T12:32:00.622Z,28.91
2022-08-21T12:34:37.321Z,28.41
2022-08-21T12:37:15.581Z,29.13
2022-08-21T12:39:47.442Z,27.63
2022-08-21T12:42:19.206Z,28.38
2022-08-21T12:44:51.234Z,28.36
2022-08-21T12:47:27.721Z,28.46
2022-08-21T12:50:02.367Z,28.58
2022-08-21T12:52:38.969Z,28.25
2022-08-21T12:55:11.920Z,26.49
2022-08-21T12:57:41.904Z,26.68
2022-08-21T13:00:12.411Z,26.92
2022-08-21T13:02:44.267Z,26.33
2022-08-21T13:05:14.602Z,25.93
2022-08-21T13:07:46.151Z,25.76
2022-08-21T13:10:21.082Z,26.03
2022-08-21T13:12:48.334Z,26.00
2022-08-21T13:15:15.164Z,26.08
2022-08-21T13:17:48.270Z,27.88
2022-08-21T13:20:22.195Z,26.33
2022-08-21T13:22:48.958Z,26.22
2022-08-21T13:25:18.338Z,26.20
2022-08-21T13:27:58.922Z,26.45
2022-08-21T13:30:25.791Z,25.67
2022-08-21T13:32:56.616Z,26.08
2022-08-21T13:35:26.746Z,25.54
2022-08-21T13:37:55.422Z,24.88
2022-08-21T13:40:27.322Z,25.72
2022-08-21T13:42:54.798Z,24.39
2022-08-21T13:45:26.470Z,25.04
2022-08-21T13:47:54.699Z,25.35
2022-08-21T13:50:24.348Z,25.34
2022-08-21T13:52:58.500Z,25.41
2022-08-21T13:55:35.812Z,25.30
2022-08-21T13:58:04.130Z,25.21
2022-08-21T14:00:32.371Z,24.56
2022-08-21T14:03:05.281Z,24.78
2022-08-21T14:05:34.135Z,25.02
2022-08-21T14:08:05.837Z,23.83
2022-08-21T14:10:37.440Z,24.58
2022-08-21T14:13:06.795Z,24.42
2022-08-21T14:15:35.859Z,25.14
2022-08-21T14:18:13.924Z,24.39
2022-08-21T14:20:41.179Z,24.34
2022-08-21T14:23:07.753Z,24.64
2022-08-21T14:25:43.795Z,24.48
2022-08-21T14:28:27.220Z,23.81
2022-08-21T14:30:57.531Z,23.74
2022-08-21T14:33:27.615Z,23.91
2022-08-21T14:35:54.910Z,24.44
2022-08-21T14:38:23.868Z,24.19
2022-08-21T14:40:54.095Z,24.99
2022-08-21T14:43:21.397Z,24.41
2022-08-21T14:45:48.791Z,24.50
2022-08-21T14:48:15.444Z,24.56
2022-08-21T14:50:42.267Z,24.44
2022-08-21T14:53:10.984Z,24.64
2022-08-21T14:55:39.416Z,25.34
2022-08-21T14:58:08.856Z,25.75
2022-08-21T15:00:35.845Z,25.60
2022-08-21T15:03:03.136Z,26.71
2022-08-21T15:05:33.831Z,26.79
2022-08-21T15:08:01.024Z,26.49
2022-08-21T15:10:27.845Z,26.96
2022-08-21T15:12:54.594Z,26.94
2022-08-21T15:15:22.751Z,26.59
2022-08-21T15:17:49.343Z,26.82
2022-08-21T15:20:16.176Z,26.70
2022-08-21T15:22:47.425Z,26.09
2022-08-21T15:25:14.575Z,26.50
2022-08-21T15:27:41.323Z,26.16
2022-08-21T15:30:08.656Z,25.99
2022-08-21T15:32:36.572Z,26.04
2022-08-21T15:35:04.052Z,25.46
2022-08-21T15:37:30.710Z,25.62
2022-08-21T15:39:57.511Z,25.60
2022-08-21T15:42:26.040Z,25.33
2022-08-21T15:44:53.703Z,25.62
2022-08-21T15:47:23.562Z,26.05
2022-08-21T15:49:51.578Z,26.22
2022-08-21T15:52:20.691Z,27.09
2022-08-21T15:54:47.743Z,26.93
2022-08-21T15:57:18.764Z,27.01
2022-08-21T15:59:49.381Z,27.12
2022-08-21T16:02:19.709Z,27.17
2022-08-21T16:04:46.282Z,27.39
2022-08-21T16:07:14.757Z,27.52
2022-08-21T16:09:41.354Z,27.97
2022-08-21T16:12:10.509Z,28.58
2022-08-21T16:14:37.777Z,28.67
2022-08-21T16:17:05.991Z,29.11
2022-08-21T16:19:33.523Z,29.09
2022-08-21T16:22:00.222Z,29.48
2022-08-21T16:24:28.236Z,30.17
2022-08-21T16:26:57.922Z,30.53
2022-08-21T16:29:29.413Z,30.61
2022-08-21T16:31:56.179Z,31.19
2022-08-21T16:34:22.720Z,30.77
2022-08-21T16:36:49.403Z,30.88
2022-08-21T16:39:15.987Z,31.23
2022-08-21T16:41:43.995Z,31.11
2022-08-21T16:44:11.178Z,30.62
2022-08-21T16:46:40.517Z,30.30
2022-08-21T16:49:07.538Z,30.00
2022-08-21T16:51:34.324Z,29.51
2022-08-21T16:54:01.014Z,29.66
2022-08-21T16:56:27.900Z,29.31
2022-08-21T16:58:58.119Z,29.76
2022-08-21T17:01:28.101Z,29.76
2022-08-21T17:03:54.745Z,29.57
2022-08-21T17:06:23.341Z,29.55
2022-08-21T17:08:55.673Z,29.44
2022-08-21T17:11:36.657Z,29.57
2022-08-21T17:14:07.940Z,29.76
2022-08-21T17:16:35.147Z,30.13
2022-08-21T17:19:01.723Z,30.26
2022-08-21T17:21:28.277Z,30.64
2022-08-21T17:23:54.848Z,30.48
2022-08-21T17:26:21.402Z,30.60
2022-08-21T17:28:50.907Z,30.73
2022-08-21T17:31:21.097Z,30.83
2022-08-21T17:33:51.142Z,31.00
2022-08-21T17:36:18.366Z,31.41
2022-08-21T17:38:45.022Z,31.57
2022-08-21T17:41:12.317Z,32.33
2022-08-21T17:43:39.729Z,32.38
2022-08-21T17:46:07.239Z,32.54
2022-08-21T17:48:35.274Z,32.63
2022-08-21T17:51:03.581Z,33.23
2022-08-21T17:53:30.179Z,33.29
2022-08-21T17:55:56.975Z,34.42
2022-08-21T17:58:23.712Z,33.89
2022-08-21T18:00:50.391Z,33.51
2022-08-21T18:03:21.457Z,34.38
2022-08-21T18:05:51.050Z,34.35
2022-08-21T18:08:18.078Z,34.92
2022-08-21T18:10:48.136Z,35.51
2022-08-21T18:13:20.893Z,35.96
2022-08-21T18:15:51.100Z,36.15
2022-08-21T18:18:17.993Z,36.76
2022-08-21T18:20:44.689Z,36.94
2022-08-21T18:23:12.821Z,36.62
2022-08-21T18:25:39.957Z,37.44
2022-08-21T18:28:08.009Z,38.50
2022-08-21T18:30:39.387Z,39.07
2022-08-21T18:33:08.477Z,39.15
2022-08-21T18:35:35.470Z,40.09
2022-08-21T18:38:02.111Z,39.51
2022-08-21T18:40:31.305Z,40.04
2022-08-21T18:43:01.059Z,39.93
2022-08-21T18:45:28.436Z,40.24
2022-08-21T18:47:57.532Z,40.70
2022-08-21T18:50:26.560Z,41.35
2022-08-21T18:52:53.771Z,42.30
2022-08-21T18:55:42.920Z,42.94
2022-08-21T18:58:10.034Z,43.50
2022-08-21T19:00:44.295Z,43.39
2022-08-21T19:03:12.053Z,43.66
2022-08-21T19:05:38.769Z,44.25
2022-08-21T19:08:06.350Z,44.57
2022-08-21T19:10:32.967Z,45.31
2022-08-21T19:13:01.368Z,45.95
2022-08-21T19:18:18.067Z,47.04
2022-08-21T19:20:47.409Z,47.57
2022-08-21T19:23:16.244Z,48.42
2022-08-21T19:25:45.559Z,49.08
2022-08-21T19:28:25.759Z,49.28
2022-08-21T19:30:57.168Z,48.87
2022-08-21T19:33:28.675Z,49.08
2022-08-21T19:35:55.633Z,50.68
2022-08-21T19:38:22.694Z,51.22
2022-08-21T19:40:49.809Z,51.61
2022-08-21T19:43:16.549Z,51.92
2022-08-21T19:45:53.481Z,51.61
2022-08-21T19:48:20.386Z,51.92
2022-08-21T19:50:46.930Z,52.38
2022-08-21T19:53:13.685Z,52.89
2022-08-21T19:55:42.792Z,53.35
2022-08-21T20:01:16.393Z,54.07
2022-08-21T20:03:44.914Z,53.97
2022-08-21T20:06:20.857Z,54.11
2022-08-21T20:08:47.751Z,54.13
2022-08-21T20:11:19.518Z,54.66
2022-08-21T20:13:46.204Z,55.01
2022-08-21T20:16:14.412Z,55.08
2022-08-21T20:18:41.545Z,55.13
2022-08-21T20:21:08.694Z,55.40
2022-08-21T20:23:35.605Z,55.81
2022-08-21T20:26:10.591Z,55.63
2022-08-21T20:28:37.628Z,55.82
2022-08-21T20:31:06.668Z,56.51
2022-08-21T20:33:37.929Z,56.29
2022-08-21T20:36:05.051Z,56.51
2022-08-21T20:38:31.632Z,56.60
2022-08-21T20:40:58.416Z,57.10
2022-08-21T20:43:26.622Z,57.39
2022-08-21T20:45:55.046Z,57.72
2022-08-21T20:48:25.295Z,57.69
2022-08-21T20:51:00.575Z,57.79
2022-08-21T20:56:36.085Z,58.52
2022-08-21T20:59:10.907Z,58.91
2022-08-21T21:01:38.432Z,58.67
2022-08-21T21:04:18.683Z,58.74
2022-08-21T21:06:49.933Z,58.75
2022-08-21T21:09:40.377Z,58.67
2022-08-21T21:12:14.825Z,59.24
2022-08-21T21:14:45.349Z,59.40
2022-08-21T21:17:19.036Z,59.51
2022-08-21T21:20:01.491Z,59.39
2022-08-21T21:22:35.173Z,59.51
2022-08-21T21:25:07.901Z,59.68
2022-08-21T21:27:38.152Z,59.87
2022-08-21T21:30:12.038Z,60.52
2022-08-21T21:32:38.866Z,60.52
2022-08-21T21:35:07.625Z,60.54
2022-08-21T21:37:42.130Z,60.61
2022-08-21T21:40:25.373Z,60.82
2022-08-21T21:43:02.822Z,60.85
2022-08-21T21:45:37.071Z,60.93
2022-08-21T21:48:15.757Z,61.38
2022-08-21T21:50:54.683Z,61.98
2022-08-21T21:53:51.660Z,62.24
2022-08-21T21:56:29.256Z,62.44
2022-08-21T21:59:24.383Z,62.98
2022-08-21T22:02:06.245Z,63.13
2022-08-21T22:04:43.176Z,63.63
2022-08-21T22:07:28.272Z,63.92
2022-08-21T22:10:19.688Z,63.86
2022-08-21T22:13:09.908Z,63.63
2022-08-21T22:15:37.917Z,63.73
2022-08-21T22:18:08.576Z,64.22
2022-08-21T22:20:38.330Z,64.57
2022-08-21T22:23:10.308Z,64.19
2022-08-21T22:25:42.686Z,64.06
2022-08-21T22:28:12.046Z,64.28
2022-08-21T22:30:45.213Z,64.56
2022-08-21T22:33:15.991Z,65.24
2022-08-21T22:35:51.727Z,65.53
2022-08-21T22:38:21.740Z,65.81
2022-08-21T22:40:50.545Z,66.20
2022-08-21T22:43:20.590Z,66.25
2022-08-21T22:45:56.649Z,66.43
2022-08-21T22:48:25.205Z,66.14
2022-08-21T22:50:56.652Z,66.02
2022-08-21T22:53:25.217Z,66.86
2022-08-21T22:55:56.821Z,66.37
2022-08-21T22:58:27.386Z,67.10
2022-08-21T23:00:56.992Z,66.95
2022-08-21T23:03:30.398Z,67.06
2022-08-21T23:05:58.781Z,67.14
2022-08-21T23:08:30.224Z,67.26
2022-08-21T23:11:02.330Z,67.30
2022-08-21T23:13:40.453Z,68.22
2022-08-21T23:16:16.288Z,68.27
2022-08-21T23:18:56.984Z,68.34
2022-08-21T23:21:37.108Z,68.45
2022-08-21T23:24:25.864Z,68.71
2022-08-21T23:30:03.056Z,68.70
2022-08-21T23:32:53.867Z,69.06
2022-08-21T23:35:23.944Z,69.23
2022-08-21T23:37:58.139Z,69.11
2022-08-21T23:40:38.029Z,69.48
2022-08-21T23:43:27.633Z,70.03
2022-08-21T23:46:14.300Z,70.48
2022-08-21T23:48:52.669Z,70.78
2022-08-21T23:51:28.935Z,71.02
2022-08-21T23:54:09.954Z,71.14
2022-08-21T23:56:52.392Z,71.24
2022-08-21T23:59:29.743Z,71.93
